Terminal Aerodrome Forecast
Issued by NWS

Home | Current Version | Previous Version | Text Only | Print | Product List | Glossary On
Versions: 1 2 3 4 5 6 7 8 9 10 11 12 13 14 15 16 17
000
FTUS44 KTSA 291127
TAFXNA
TAF
KXNA 291127Z 2912/3012 10012KT P6SM VCSH BKN090
     FM291300 14012G18KT 6SM -TSRA BKN015CB
      TEMPO 2914/2917 VRB20G30KT 2SM TSRA BKN007CB
     FM291700 16015KT P6SM VCSH BKN012
     FM292000 17013G20KT P6SM VCTS BKN025CB
     FM300100 19009KT P6SM BKN050=

USA.gov is the U.S. government's official web portal to all federal, state and local government web resources and services.